Time;durP1;ratioP1;P1;durP2;ratioP2;P2;SDS_P1;SDS_P2;PMS_P1;PMS_P2;Temp;Humidity;BMP_temperature;BMP_pressure;BME280_temperature;BME280_humidity;BME280_pressure;Samples;Min_cycle;Max_cycle;Signal;HPM_P1;HPM_P2
2021/09/30 00:01:26;;;;;;;3.47;0.65;;;21.50;52.20;;;;;;3022123;29;20052;-84
2021/09/30 00:02:58;;;;;;;1.15;0.60;;;21.40;52.30;;;;;;3018183;29;20049;-86
2021/09/30 00:04:29;;;;;;;1.10;0.52;;;21.40;52.40;;;;;;3018571;29;20416;-85
2021/09/30 00:06:01;;;;;;;2.42;0.60;;;21.40;52.40;;;;;;3020021;29;20050;-86
2021/09/30 00:07:31;;;;;;;0.77;0.50;;;21.40;52.50;;;;;;3015360;29;20058;-85
2021/09/30 00:09:03;;;;;;;2.75;0.68;;;21.40;52.50;;;;;;3014876;29;20565;-85
2021/09/30 00:10:34;;;;;;;1.60;0.63;;;21.40;52.60;;;;;;3015287;29;20542;-85
2021/09/30 00:12:10;;;;;;;3.15;0.70;;;21.40;52.50;;;;;;3015251;29;20129;-85
2021/09/30 00:13:47;;;;;;;3.53;0.60;;;21.50;52.30;;;;;;3015031;29;20061;-85
2021/09/30 00:15:28;;;;;;;2.45;0.80;;;21.60;52.30;;;;;;3017824;29;20431;-84
2021/09/30 00:17:11;;;;;;;1.08;0.52;;;21.60;52.00;;;;;;3027071;29;20501;-85
2021/09/30 00:33:34;;;;;;;1.20;0.50;;;21.90;51.60;;;;;;3023041;29;20085;-86
2021/09/30 00:35:19;;;;;;;1.80;0.60;;;21.90;51.40;;;;;;3026503;29;20485;-86
2021/09/30 00:40:33;;;;;;;2.97;0.50;;;21.90;51.60;;;;;;3015077;29;20041;-85
2021/09/30 00:42:07;;;;;;;1.77;0.60;;;21.90;51.70;;;;;;3015425;29;20049;-86
2021/09/30 00:45:43;;;;;;;0.73;0.50;;;21.90;51.60;;;;;;3014615;29;20046;-86
2021/09/30 00:47:31;;;;;;;1.88;0.73;;;21.90;51.70;;;;;;3015165;29;20068;-85
2021/09/30 00:49:17;;;;;;;2.00;0.88;;;21.90;51.70;;;;;;3014701;29;20532;-86
2021/09/30 00:51:01;;;;;;;1.15;0.50;;;21.90;51.70;;;;;;3014867;29;20091;-84
2021/09/30 00:52:35;;;;;;;;;;;21.90;51.80;;;;;;3018862;29;20084;-85
2021/09/30 00:54:23;;;;;;;3.00;0.60;;;21.90;51.70;;;;;;3018492;29;19920;-85
2021/09/30 00:56:08;;;;;;;1.98;0.50;;;22.00;51.60;;;;;;3014813;29;20107;-85
2021/09/30 01:33:56;;;;;;;2.35;0.60;;;22.00;51.60;;;;;;3019461;29;20049;-85
2021/09/30 01:46:49;;;;;;;0.52;0.40;;;22.10;51.60;;;;;;3023935;29;20050;-85
2021/09/30 02:19:55;;;;;;;1.00;0.50;;;22.00;52.00;;;;;;3027583;29;20041;-84
2021/09/30 02:22:03;;;;;;;1.70;0.68;;;22.00;52.20;;;;;;3028275;29;20080;-86
2021/09/30 02:26:01;;;;;;;1.42;0.60;;;22.00;52.10;;;;;;3183377;27;20488;-86
2021/09/30 02:27:51;;;;;;;3.08;0.60;;;22.00;52.10;;;;;;3182979;27;20051;-86
2021/09/30 02:29:32;;;;;;;0.90;0.50;;;22.00;52.20;;;;;;3153206;27;20416;-85
2021/09/30 02:35:23;;;;;;;1.27;0.68;;;22.00;52.20;;;;;;3112113;28;20636;-85
2021/09/30 02:59:15;;;;;;;1.00;0.55;;;22.20;51.80;;;;;;3132046;28;20390;-85
2021/09/30 03:00:47;;;;;;;1.23;0.55;;;22.10;51.90;;;;;;3131179;28;20056;-86
2021/09/30 03:02:18;;;;;;;1.20;0.60;;;22.10;51.90;;;;;;3132177;28;20049;-86
2021/09/30 03:03:50;;;;;;;1.55;0.50;;;22.10;51.90;;;;;;3135000;28;20055;-85
2021/09/30 03:05:22;;;;;;;1.27;0.60;;;22.10;52.00;;;;;;3132101;28;20041;-86
2021/09/30 03:06:55;;;;;;;1.55;0.60;;;22.10;52.50;;;;;;3132246;28;20056;-84
2021/09/30 03:08:26;;;;;;;1.60;0.68;;;22.10;51.80;;;;;;3132255;28;20056;-85
2021/09/30 03:09:59;;;;;;;1.45;0.60;;;22.10;51.90;;;;;;3131246;28;20049;-85
2021/09/30 03:11:36;;;;;;;0.68;0.50;;;22.10;51.90;;;;;;3132324;28;20053;-86
2021/09/30 03:13:09;;;;;;;2.78;0.60;;;22.20;51.90;;;;;;3142604;28;20436;-85
2021/09/30 03:14:46;;;;;;;1.33;0.50;;;22.20;51.80;;;;;;3144000;28;20152;-85
2021/09/30 03:16:23;;;;;;;1.45;0.55;;;22.10;51.80;;;;;;3143774;28;20052;-86
2021/09/30 03:18:13;;;;;;;1.92;0.60;;;22.10;51.80;;;;;;3144795;28;20049;-85
2021/09/30 03:19:52;;;;;;;1.35;0.60;;;22.10;52.00;;;;;;3143462;28;20131;-85
2021/09/30 03:23:15;;;;;;;1.50;0.60;;;22.10;52.00;;;;;;3144251;28;20045;-86
2021/09/30 03:24:47;;;;;;;2.92;0.60;;;22.10;52.10;;;;;;3142657;28;20044;-84
2021/09/30 03:26:25;;;;;;;0.85;0.50;;;22.10;52.10;;;;;;3144557;28;20041;-85
2021/09/30 03:27:57;;;;;;;1.58;0.60;;;22.10;52.10;;;;;;3144614;28;20455;-86
2021/09/30 03:29:33;;;;;;;1.90;0.50;;;22.10;52.10;;;;;;3143556;28;20106;-86
2021/09/30 03:31:05;;;;;;;1.60;0.60;;;22.10;52.10;;;;;;3142818;28;20041;-85
2021/09/30 03:32:37;;;;;;;1.08;0.70;;;22.10;52.00;;;;;;3143868;28;20053;-86
2021/09/30 03:34:09;;;;;;;1.55;0.60;;;22.10;52.10;;;;;;3131000;28;20059;-86
2021/09/30 03:35:41;;;;;;;1.70;0.60;;;22.10;51.90;;;;;;3130550;28;20557;-85
2021/09/30 03:37:12;;;;;;;1.43;0.60;;;22.10;51.90;;;;;;3122910;28;20057;-85
2021/09/30 03:38:47;;;;;;;1.05;0.50;;;22.10;52.00;;;;;;3119149;28;20366;-86
2021/09/30 03:40:19;;;;;;;1.88;0.70;;;22.10;52.10;;;;;;3118786;28;20053;-86
2021/09/30 03:41:50;;;;;;;1.52;0.60;;;22.00;52.10;;;;;;3111209;28;20061;-85
2021/09/30 03:43:24;;;;;;;1.35;0.50;;;22.10;52.10;;;;;;3111339;28;20116;-84
2021/09/30 03:44:57;;;;;;;1.48;0.50;;;22.00;52.20;;;;;;3110524;28;20042;-85
2021/09/30 03:46:32;;;;;;;1.20;0.52;;;22.00;52.40;;;;;;3121711;28;20387;-85
2021/09/30 03:48:03;;;;;;;1.13;0.50;;;22.00;52.40;;;;;;3123242;28;20050;-86
2021/09/30 03:49:38;;;;;;;0.82;0.50;;;22.00;52.30;;;;;;3122630;28;20053;-86
2021/09/30 03:51:14;;;;;;;1.85;0.70;;;22.00;52.30;;;;;;3123409;28;20140;-85
2021/09/30 03:52:58;;;;;;;1.33;0.60;;;22.10;52.30;;;;;;3122976;28;20054;-85
2021/09/30 03:54:37;;;;;;;1.05;0.47;;;22.20;52.20;;;;;;3122455;28;20049;-85
2021/09/30 03:56:21;;;;;;;1.10;0.40;;;22.30;51.90;;;;;;3127141;28;20081;-85
2021/09/30 03:59:39;;;;;;;1.25;0.60;;;22.60;51.30;;;;;;3125115;28;20156;-86
2021/09/30 04:01:11;;;;;;;1.90;0.60;;;22.70;51.20;;;;;;3109613;28;20549;-85
2021/09/30 04:02:43;;;;;;;1.48;0.52;;;22.70;51.00;;;;;;3110571;28;20050;-85
2021/09/30 04:04:15;;;;;;;0.85;0.50;;;22.80;50.70;;;;;;3118932;28;20064;-85
2021/09/30 04:05:46;;;;;;;2.08;0.60;;;22.90;50.60;;;;;;3122873;28;20728;-85
2021/09/30 04:07:19;;;;;;;0.43;0.32;;;23.00;50.40;;;;;;3122454;28;20053;-85
2021/09/30 04:08:51;;;;;;;;;;;23.10;50.30;;;;;;3122781;28;21236;-85
2021/09/30 04:10:26;;;;;;;0.60;0.45;;;23.10;50.20;;;;;;3122783;28;20361;-85
2021/09/30 04:11:59;;;;;;;1.25;0.50;;;23.20;50.00;;;;;;3123792;28;20072;-85
2021/09/30 04:13:31;;;;;;;;;;;23.30;49.90;;;;;;3135680;28;20053;-85
2021/09/30 04:15:05;;;;;;;1.08;0.50;;;23.30;49.80;;;;;;3147173;28;19927;-86
2021/09/30 04:16:39;;;;;;;1.00;0.50;;;23.30;49.70;;;;;;3135029;28;20053;-85
2021/09/30 04:18:11;;;;;;;2.17;0.60;;;23.40;49.70;;;;;;3135470;28;20785;-86
2021/09/30 04:19:43;;;;;;;2.13;0.70;;;23.40;49.70;;;;;;3134510;28;20051;-85
2021/09/30 04:21:14;;;;;;;1.55;0.70;;;23.50;49.50;;;;;;3135258;28;20041;-86
2021/09/30 04:22:46;;;;;;;1.17;0.40;;;23.60;49.40;;;;;;3135316;28;20053;-85
2021/09/30 04:24:20;;;;;;;2.13;0.63;;;23.60;49.30;;;;;;3134723;28;20045;-85
2021/09/30 04:25:51;;;;;;;1.42;0.47;;;23.70;49.20;;;;;;3135521;28;20729;-85
2021/09/30 04:27:23;;;;;;;1.10;0.50;;;23.70;49.00;;;;;;3135424;28;20068;-86
2021/09/30 04:28:54;;;;;;;0.90;0.50;;;23.80;49.00;;;;;;3134845;28;20049;-86
2021/09/30 04:30:26;;;;;;;1.73;0.60;;;23.80;49.00;;;;;;3134212;28;20041;-85
2021/09/30 04:31:59;;;;;;;2.40;0.70;;;23.80;48.90;;;;;;3135415;28;20045;-86
2021/09/30 04:33:30;;;;;;;1.25;0.50;;;23.80;48.90;;;;;;3127591;28;20049;-85
2021/09/30 04:35:02;;;;;;;0.88;0.40;;;23.80;48.80;;;;;;3122411;28;20050;-85
2021/09/30 04:36:34;;;;;;;1.60;0.57;;;23.90;48.90;;;;;;3122398;28;20061;-85
2021/09/30 04:38:08;;;;;;;1.15;0.50;;;23.80;48.90;;;;;;3122742;28;20498;-85
2021/09/30 04:39:40;;;;;;;1.73;0.50;;;23.90;49.00;;;;;;3121709;28;20049;-85
2021/09/30 04:41:12;;;;;;;1.67;0.50;;;23.80;48.90;;;;;;3122820;28;20067;-86
2021/09/30 04:42:44;;;;;;;1.55;0.60;;;23.80;49.00;;;;;;3122945;28;20049;-85
2021/09/30 04:44:16;;;;;;;1.40;0.60;;;23.80;49.10;;;;;;3122212;28;20046;-85
2021/09/30 04:45:48;;;;;;;1.10;0.60;;;23.70;49.10;;;;;;3122012;28;20049;-85
2021/09/30 04:47:21;;;;;;;1.00;0.45;;;23.70;49.20;;;;;;3122459;28;20072;-86
2021/09/30 04:48:53;;;;;;;1.33;0.60;;;23.70;49.30;;;;;;3121549;28;20103;-84
2021/09/30 04:50:24;;;;;;;1.73;0.50;;;23.60;49.30;;;;;;3122466;28;20053;-86
2021/09/30 04:51:56;;;;;;;1.40;0.60;;;23.60;49.30;;;;;;3122811;28;20072;-86
2021/09/30 04:53:28;;;;;;;2.42;0.52;;;23.60;49.50;;;;;;3122736;28;20042;-86
2021/09/30 04:55:00;;;;;;;1.73;0.65;;;23.50;49.60;;;;;;3122062;28;20053;-86
2021/09/30 04:56:32;;;;;;;2.67;0.60;;;23.50;49.60;;;;;;3122243;28;20143;-86
2021/09/30 04:58:06;;;;;;;1.70;0.57;;;23.50;49.80;;;;;;3122873;28;20099;-85
2021/09/30 04:59:38;;;;;;;1.33;0.55;;;23.40;49.80;;;;;;3121839;28;20049;-85
2021/09/30 05:01:10;;;;;;;1.55;0.60;;;23.40;49.80;;;;;;3121364;28;20049;-85
2021/09/30 05:02:46;;;;;;;1.33;0.57;;;23.30;49.90;;;;;;3121581;28;20077;-86
2021/09/30 05:04:18;;;;;;;2.40;0.70;;;23.30;49.90;;;;;;3118925;28;20095;-85
2021/09/30 05:05:50;;;;;;;1.42;0.50;;;23.30;50.10;;;;;;3122439;28;20053;-86
2021/09/30 05:07:22;;;;;;;1.10;0.52;;;23.20;50.20;;;;;;3122338;28;20057;-84
2021/09/30 05:08:57;;;;;;;1.40;0.50;;;23.20;50.20;;;;;;3122049;28;20045;-86
2021/09/30 05:10:32;;;;;;;1.27;0.43;;;23.20;50.20;;;;;;3122156;28;20498;-85
2021/09/30 05:12:06;;;;;;;1.77;0.57;;;23.20;50.30;;;;;;3124096;28;20064;-85
2021/09/30 05:13:38;;;;;;;1.10;0.50;;;23.20;50.40;;;;;;3134250;28;20052;-85
2021/09/30 05:15:11;;;;;;;2.50;0.63;;;23.10;50.40;;;;;;3134012;28;20422;-84
2021/09/30 05:16:43;;;;;;;1.35;0.50;;;23.10;50.40;;;;;;3134591;28;20567;-86
2021/09/30 05:18:16;;;;;;;1.85;0.60;;;23.20;50.30;;;;;;3134427;28;20056;-85
2021/09/30 05:19:48;;;;;;;3.15;0.80;;;23.20;50.30;;;;;;3127029;28;20048;-86
2021/09/30 05:21:19;;;;;;;2.58;0.82;;;23.00;49.10;;;;;;3122292;28;20041;-85
2021/09/30 05:22:51;;;;;;;6.18;0.85;;;22.80;49.70;;;;;;3122279;28;20049;-85
2021/09/30 05:24:23;;;;;;;2.28;0.70;;;22.70;49.60;;;;;;3128928;28;20048;-85
2021/09/30 05:25:55;;;;;;;3.70;0.85;;;22.60;49.80;;;;;;3134436;28;20102;-85
2021/09/30 05:27:26;;;;;;;5.00;0.88;;;22.50;49.90;;;;;;3134712;28;20053;-86
2021/09/30 05:29:00;;;;;;;3.88;1.00;;;22.50;49.60;;;;;;3130039;28;20049;-87
2021/09/30 05:30:32;;;;;;;4.03;0.90;;;22.40;49.60;;;;;;3124841;28;20037;-86
2021/09/30 05:32:04;;;;;;;3.70;0.88;;;22.50;49.50;;;;;;3134256;28;20307;-86
2021/09/30 05:33:37;;;;;;;1.98;0.65;;;22.50;49.30;;;;;;3128601;28;20051;-86
2021/09/30 05:35:10;;;;;;;2.95;1.05;;;22.50;49.20;;;;;;3121946;28;20049;-85
2021/09/30 05:36:42;;;;;;;5.28;0.90;;;22.40;49.20;;;;;;3110201;28;20460;-85
2021/09/30 05:38:13;;;;;;;3.17;0.65;;;22.40;49.00;;;;;;3109856;28;20060;-85
2021/09/30 05:39:45;;;;;;;4.88;1.00;;;22.50;48.80;;;;;;3108978;28;20049;-86
2021/09/30 05:41:17;;;;;;;4.05;0.88;;;22.50;48.70;;;;;;3110177;28;20058;-86
2021/09/30 05:42:49;;;;;;;5.95;1.10;;;22.60;48.80;;;;;;3109957;28;20128;-86
2021/09/30 05:44:23;;;;;;;8.45;1.33;;;22.70;48.70;;;;;;3109305;28;20084;-85
2021/09/30 05:45:56;;;;;;;9.20;1.00;;;22.80;48.60;;;;;;3108848;28;20041;-85
2021/09/30 05:47:27;;;;;;;;;;;22.90;48.20;;;;;;3110290;28;20083;-87
2021/09/30 05:49:00;;;;;;;8.00;0.88;;;23.00;48.00;;;;;;3109252;28;19996;-85
2021/09/30 05:50:32;;;;;;;7.80;0.80;;;23.00;48.00;;;;;;3109393;28;20061;-85
2021/09/30 05:52:04;;;;;;;6.20;0.95;;;23.10;47.90;;;;;;3111041;28;20626;-85
2021/09/30 05:53:36;;;;;;;4.78;1.05;;;23.20;47.70;;;;;;3109259;28;20053;-85
2021/09/30 05:55:08;;;;;;;13.27;1.40;;;23.20;47.80;;;;;;3105384;28;20042;-85
2021/09/30 05:56:40;;;;;;;30.95;2.40;;;23.20;48.20;;;;;;3121585;28;20049;-84
2021/09/30 05:58:12;;;;;;;23.88;1.70;;;23.30;48.00;;;;;;3121329;28;20556;-84
2021/09/30 05:59:44;;;;;;;31.65;2.13;;;23.40;47.60;;;;;;3119973;28;20568;-85
2021/09/30 06:01:31;;;;;;;13.38;1.67;;;23.40;47.40;;;;;;3108677;28;20514;-84
2021/09/30 06:10:49;;;;;;;12.63;1.88;;;23.30;48.00;;;;;;3121265;28;20049;-84
2021/09/30 06:12:22;;;;;;;11.20;1.38;;;23.30;48.20;;;;;;3121464;28;20659;-84
2021/09/30 06:13:58;;;;;;;;;;;23.30;48.20;;;;;;3124197;28;20127;-84
2021/09/30 06:15:33;;;;;;;22.65;2.33;;;23.30;48.40;;;;;;3127503;28;19921;-84
2021/09/30 06:19:01;;;;;;;10.07;1.20;;;23.20;48.70;;;;;;3108184;28;20041;-84
2021/09/30 06:20:34;;;;;;;9.45;1.40;;;23.10;48.80;;;;;;3109055;28;20450;-84
2021/09/30 06:22:07;;;;;;;7.90;1.50;;;23.10;48.90;;;;;;3109127;28;20057;-83
2021/09/30 06:23:39;;;;;;;;;;;23.10;49.10;;;;;;3109779;28;20053;-84
2021/09/30 06:25:11;;;;;;;9.20;1.48;;;23.00;49.20;;;;;;3109174;28;19922;-84
2021/09/30 06:26:43;;;;;;;8.63;1.30;;;22.90;49.20;;;;;;3109174;28;20101;-84
2021/09/30 06:28:15;;;;;;;9.10;1.50;;;22.90;49.30;;;;;;3109341;28;20517;-84
2021/09/30 06:29:47;;;;;;;10.93;1.65;;;22.80;49.40;;;;;;3107435;28;20096;-84
2021/09/30 06:31:18;;;;;;;8.07;1.10;;;22.80;49.50;;;;;;3124679;28;20056;-84
2021/09/30 06:32:52;;;;;;;7.35;1.40;;;22.80;49.60;;;;;;3133859;28;20049;-85
2021/09/30 06:34:30;;;;;;;17.20;1.90;;;22.70;49.60;;;;;;3126893;28;20053;-83
2021/09/30 06:36:20;;;;;;;17.30;1.67;;;22.70;49.70;;;;;;3114378;28;20537;-83
2021/09/30 06:38:06;;;;;;;6.63;1.27;;;22.70;49.90;;;;;;3119907;28;20077;-83
2021/09/30 06:40:00;;;;;;;13.57;1.35;;;22.60;50.10;;;;;;3121443;28;20049;-83
2021/09/30 06:44:08;;;;;;;8.20;1.20;;;22.50;50.40;;;;;;3108600;28;20062;-83
2021/09/30 06:48:37;;;;;;;12.15;1.30;;;22.40;50.80;;;;;;3084888;28;20508;-83
2021/09/30 06:53:48;;;;;;;;;;;;;;;;;;;;;
2021/09/30 07:20:30;;;;;;;5.35;1.30;;;21.70;52.80;;;;;;2995744;29;20061;-84
2021/09/30 07:22:05;;;;;;;8.27;1.30;;;21.60;52.80;;;;;;3028626;29;20135;-84
2021/09/30 07:26:13;;;;;;;5.85;0.93;;;21.60;52.70;;;;;;3106517;28;20464;-84
2021/09/30 07:28:02;;;;;;;4.82;1.02;;;21.60;52.70;;;;;;3115852;28;20081;-85
2021/09/30 09:10:10;;;;;;;4.72;1.00;;;21.30;53.80;;;;;;2922739;30;20061;-85
2021/09/30 09:11:48;;;;;;;3.53;1.20;;;21.30;53.40;;;;;;2979181;29;20058;-86
2021/09/30 09:13:21;;;;;;;4.40;1.10;;;21.30;53.30;;;;;;2982547;29;20560;-85
2021/09/30 09:15:10;;;;;;;3.60;0.98;;;21.20;53.30;;;;;;2986803;29;20136;-86
2021/09/30 09:16:59;;;;;;;6.00;1.27;;;21.30;53.40;;;;;;3033183;29;20546;-86
2021/09/30 09:18:35;;;;;;;6.32;1.48;;;21.30;53.40;;;;;;3014003;29;20110;-86
2021/09/30 09:20:07;;;;;;;6.35;1.40;;;21.30;53.40;;;;;;3033450;29;20056;-86
2021/09/30 09:21:41;;;;;;;5.25;1.48;;;21.30;53.30;;;;;;3050393;29;20497;-86
2021/09/30 09:23:12;;;;;;;7.15;1.75;;;21.20;53.40;;;;;;3049923;29;20099;-85
2021/09/30 09:25:00;;;;;;;6.28;1.25;;;21.30;53.50;;;;;;3059158;28;20056;-87
2021/09/30 09:27:41;;;;;;;6.35;1.58;;;21.30;53.50;;;;;;3061954;29;20048;-89
2021/09/30 09:32:13;;;;;;;5.15;1.50;;;21.40;53.30;;;;;;2979574;29;20071;-89
2021/09/30 09:33:53;;;;;;;7.00;1.42;;;21.40;53.10;;;;;;2988960;29;20659;-89
2021/09/30 09:35:28;;;;;;;3.30;1.30;;;21.40;52.90;;;;;;3047414;29;20059;-88
2021/09/30 09:39:16;;;;;;;11.13;1.70;;;21.50;52.70;;;;;;3075093;28;20393;-88
2021/09/30 09:42:24;;;;;;;;;;;;;;;;;;;;;
2021/09/30 09:44:05;;;;;;;6.10;1.40;;;21.60;52.50;;;;;;3063410;28;20062;-89
2021/09/30 09:45:44;;;;;;;8.38;1.40;;;21.60;52.60;;;;;;3070143;28;20495;-89
2021/09/30 09:47:39;;;;;;;5.20;1.40;;;21.60;52.60;;;;;;3094740;28;20054;-88
2021/09/30 09:49:20;;;;;;;5.57;1.33;;;21.60;52.60;;;;;;3067424;28;20147;-88
2021/09/30 09:50:58;;;;;;;5.05;1.70;;;21.60;52.60;;;;;;3073014;28;20051;-88
2021/09/30 09:52:58;;;;;;;8.57;1.63;;;21.60;52.60;;;;;;3073225;28;20063;-89
2021/09/30 09:54:36;;;;;;;3.95;1.23;;;21.50;52.80;;;;;;3072809;28;20051;-89
2021/09/30 09:56:15;;;;;;;5.18;1.50;;;21.60;52.70;;;;;;3073401;28;20051;-88
2021/09/30 09:58:07;;;;;;;5.82;1.23;;;21.50;52.90;;;;;;3073109;28;20055;-89
2021/09/30 09:59:41;;;;;;;5.93;1.67;;;21.50;53.00;;;;;;3070413;28;20047;-88
2021/09/30 10:01:27;;;;;;;4.82;1.40;;;21.40;53.30;;;;;;3059828;28;20106;-89
2021/09/30 10:03:13;;;;;;;5.07;1.40;;;21.40;53.30;;;;;;3064691;29;20082;-87
2021/09/30 10:04:45;;;;;;;2.38;1.17;;;21.40;53.40;;;;;;3072670;28;20058;-88
2021/09/30 10:06:17;;;;;;;4.57;1.57;;;21.30;53.40;;;;;;3073193;29;20065;-88
2021/09/30 10:07:51;;;;;;;4.60;1.50;;;21.30;53.50;;;;;;3073162;29;20054;-88
2021/09/30 10:09:23;;;;;;;5.72;1.55;;;21.40;53.50;;;;;;3071194;28;20080;-88
2021/09/30 10:10:55;;;;;;;4.57;1.30;;;21.40;53.60;;;;;;3073521;29;20331;-88
2021/09/30 10:12:28;;;;;;;;;;;21.40;53.70;;;;;;3078248;28;20054;-88
2021/09/30 10:14:02;;;;;;;5.15;1.35;;;21.30;53.70;;;;;;3081686;28;19922;-89
2021/09/30 10:15:35;;;;;;;4.85;1.65;;;21.30;54.00;;;;;;3071927;28;20039;-89
2021/09/30 10:49:42;;;;;;;35.38;3.85;;;21.80;59.40;;;;;;3063744;28;20051;-88
2021/09/30 10:51:14;;;;;;;36.17;3.78;;;21.70;61.10;;;;;;3111171;28;20084;-87
2021/09/30 10:52:52;;;;;;;32.63;4.25;;;21.60;61.90;;;;;;3112380;28;20454;-86
2021/09/30 10:54:24;;;;;;;19.27;3.60;;;21.60;61.80;;;;;;3112157;28;20561;-87
2021/09/30 10:55:56;;;;;;;27.35;3.60;;;21.70;61.10;;;;;;3112374;28;20415;-88
2021/09/30 10:57:38;;;;;;;30.55;4.25;;;21.70;60.30;;;;;;3112465;28;20057;-87
2021/09/30 10:59:40;;;;;;;18.98;3.05;;;21.70;60.10;;;;;;3098938;28;20046;-88
2021/09/30 11:01:13;;;;;;;18.40;2.90;;;21.60;59.60;;;;;;3099421;28;20100;-89
2021/09/30 11:03:20;;;;;;;17.20;3.60;;;21.60;60.00;;;;;;3111963;28;20042;-89
2021/09/30 11:05:08;;;;;;;22.67;3.00;;;21.60;60.00;;;;;;3093769;28;20046;-88
2021/09/30 11:06:40;;;;;;;17.38;3.28;;;21.50;59.80;;;;;;3112226;28;20096;-88
2021/09/30 11:08:24;;;;;;;14.00;2.83;;;21.50;59.80;;;;;;3111308;28;20111;-89
2021/09/30 11:10:21;;;;;;;17.05;3.17;;;21.40;59.80;;;;;;3110612;28;20292;-87
2021/09/30 11:12:07;;;;;;;19.05;3.15;;;21.40;59.70;;;;;;3099548;28;20145;-86
2021/09/30 11:13:39;;;;;;;17.23;3.30;;;21.40;60.10;;;;;;3123664;28;20046;-86
2021/09/30 11:15:14;;;;;;;15.77;3.00;;;21.30;60.00;;;;;;3123134;28;20474;-89
2021/09/30 11:16:47;;;;;;;15.10;3.30;;;21.40;60.00;;;;;;3124531;28;20073;-85
2021/09/30 11:18:38;;;;;;;12.13;3.13;;;21.30;60.10;;;;;;3124257;28;20122;-86
2021/09/30 11:20:34;;;;;;;11.32;2.85;;;21.30;59.80;;;;;;3123952;28;20046;-87
2021/09/30 11:22:06;;;;;;;11.88;3.35;;;21.20;60.00;;;;;;3106570;28;20156;-86
2021/09/30 11:23:49;;;;;;;11.38;2.97;;;21.20;60.30;;;;;;3110041;28;20096;-86
2021/09/30 11:25:21;;;;;;;16.10;2.80;;;21.20;60.20;;;;;;3111371;28;20050;-86
2021/09/30 11:27:12;;;;;;;10.77;2.90;;;21.20;60.30;;;;;;3110432;28;20042;-86
2021/09/30 11:28:48;;;;;;;12.55;3.05;;;21.20;60.30;;;;;;3109967;28;20494;-86
2021/09/30 11:30:29;;;;;;;13.88;3.10;;;21.20;59.90;;;;;;3108854;28;20069;-86
2021/09/30 11:32:29;;;;;;;12.30;3.28;;;21.30;59.80;;;;;;3101639;28;20100;-87
2021/09/30 11:34:04;;;;;;;12.23;2.97;;;21.30;59.20;;;;;;3110744;28;20669;-87
2021/09/30 11:35:37;;;;;;;12.10;2.95;;;21.30;59.10;;;;;;3110072;28;20045;-86
2021/09/30 11:37:15;;;;;;;10.65;2.50;;;21.20;59.10;;;;;;3110576;28;20112;-86
2021/09/30 11:38:47;;;;;;;12.82;2.83;;;21.20;59.00;;;;;;3109577;28;20554;-86
2021/09/30 11:40:20;;;;;;;11.57;2.57;;;21.30;58.80;;;;;;3110883;28;20050;-86
2021/09/30 11:41:52;;;;;;;;;;;21.20;58.70;;;;;;3110169;28;20107;-85
2021/09/30 11:43:23;;;;;;;11.60;2.67;;;21.30;58.50;;;;;;3110107;28;19926;-85
2021/09/30 11:44:59;;;;;;;11.55;2.63;;;21.30;58.60;;;;;;3110390;28;20081;-86
2021/09/30 11:46:35;;;;;;;10.48;2.75;;;21.30;58.40;;;;;;3099106;28;20046;-85
2021/09/30 11:48:08;;;;;;;7.60;2.40;;;21.40;58.70;;;;;;3109350;28;20092;-85
2021/09/30 11:49:40;;;;;;;11.57;2.70;;;21.40;57.90;;;;;;3108748;28;20137;-85
2021/09/30 11:51:13;;;;;;;12.02;2.45;;;21.40;58.00;;;;;;3110413;28;20042;-85
2021/09/30 11:52:45;;;;;;;14.25;2.55;;;21.40;57.80;;;;;;3110656;28;20457;-85
2021/09/30 11:54:18;;;;;;;8.48;2.28;;;21.40;57.80;;;;;;3109114;28;20161;-86
2021/09/30 11:55:51;;;;;;;10.68;2.50;;;21.50;57.30;;;;;;3110808;28;20046;-85
2021/09/30 11:57:31;;;;;;;9.90;2.40;;;21.50;56.90;;;;;;3111501;28;20442;-89
2021/09/30 11:59:05;;;;;;;9.82;2.25;;;21.60;56.60;;;;;;3126642;23;20121;-88
2021/09/30 12:00:39;;;;;;;7.82;1.80;;;21.60;56.50;;;;;;3121638;28;20069;-87
2021/09/30 12:02:10;;;;;;;9.23;2.38;;;21.60;56.20;;;;;;3126082;28;20496;-88
2021/09/30 12:03:43;;;;;;;8.77;2.10;;;21.60;56.00;;;;;;3127370;28;20041;-88
2021/09/30 12:05:20;;;;;;;9.20;2.60;;;21.70;55.80;;;;;;3123658;28;20128;-88
2021/09/30 12:06:53;;;;;;;7.93;2.22;;;21.80;55.70;;;;;;3111590;28;20052;-87
2021/09/30 12:08:25;;;;;;;11.48;2.10;;;21.80;55.50;;;;;;3127450;28;20068;-88
2021/09/30 12:09:57;;;;;;;11.63;2.33;;;21.80;55.70;;;;;;3122928;28;20132;-89
2021/09/30 12:11:31;;;;;;;6.88;2.00;;;21.90;55.60;;;;;;3123554;28;20477;-90
2021/09/30 12:13:12;;;;;;;9.80;2.28;;;22.00;55.50;;;;;;3123830;28;20481;-90
2021/09/30 12:14:46;;;;;;;10.05;2.10;;;21.90;55.40;;;;;;3122569;28;20049;-89
2021/09/30 12:16:19;;;;;;;11.18;2.28;;;21.90;55.60;;;;;;3122815;28;20060;-91
2021/09/30 12:18:15;;;;;;;11.38;2.40;;;22.00;55.40;;;;;;3124363;28;20049;-91
2021/09/30 12:19:49;;;;;;;7.20;2.10;;;21.90;55.30;;;;;;3122690;28;20045;-91
2021/09/30 12:21:21;;;;;;;6.65;1.80;;;21.80;55.10;;;;;;3123739;28;20309;-89
2021/09/30 12:22:56;;;;;;;9.35;1.98;;;21.90;54.90;;;;;;3123587;28;20053;-89
2021/09/30 12:24:28;;;;;;;10.73;2.60;;;21.90;54.80;;;;;;3121030;28;20048;-90
2021/09/30 12:26:03;;;;;;;5.97;1.67;;;21.90;54.60;;;;;;3124004;28;20497;-89
2021/09/30 12:28:08;;;;;;;;;;;;;;;;;;;;;
2021/09/30 12:29:42;;;;;;;9.60;2.38;;;21.80;54.70;;;;;;3122084;28;20493;-89
2021/09/30 12:31:16;;;;;;;9.85;2.15;;;21.90;54.70;;;;;;3122922;28;20497;-90
2021/09/30 12:33:00;;;;;;;9.68;2.17;;;21.80;54.80;;;;;;3123489;28;20049;-91
2021/09/30 12:34:32;;;;;;;9.85;2.08;;;21.80;54.80;;;;;;3121192;28;20394;-92
2021/09/30 12:36:05;;;;;;;9.93;2.17;;;21.70;55.10;;;;;;3124280;28;20057;-89
2021/09/30 12:37:44;;;;;;;9.32;2.00;;;21.70;55.20;;;;;;3123848;28;20085;-89
2021/09/30 12:39:27;;;;;;;8.70;1.98;;;21.70;55.30;;;;;;3123217;28;20045;-89
2021/09/30 12:41:05;;;;;;;8.68;2.30;;;21.60;55.30;;;;;;3124127;28;20550;-89
2021/09/30 12:42:37;;;;;;;11.80;2.25;;;21.60;55.30;;;;;;3123996;28;20059;-89
2021/09/30 12:44:13;;;;;;;7.65;2.05;;;21.60;55.10;;;;;;3114628;28;20045;-89
2021/09/30 12:45:46;;;;;;;9.60;2.30;;;21.60;55.00;;;;;;3122442;28;20041;-89
2021/09/30 12:47:38;;;;;;;9.30;1.85;;;21.70;54.90;;;;;;3123326;28;20375;-90
2021/09/30 12:49:09;;;;;;;8.77;2.10;;;21.70;55.00;;;;;;3122574;28;20052;-89
2021/09/30 12:50:44;;;;;;;10.02;2.28;;;21.70;54.80;;;;;;3121236;28;20057;-90
2021/09/30 12:52:17;;;;;;;6.28;1.88;;;21.60;54.80;;;;;;3122806;28;20049;-88
2021/09/30 12:53:50;;;;;;;7.88;2.13;;;21.70;54.70;;;;;;3118769;28;20045;-90
2021/09/30 12:55:27;;;;;;;;;;;21.70;54.70;;;;;;3111374;28;20042;-89
2021/09/30 12:57:09;;;;;;;6.95;1.92;;;21.80;54.40;;;;;;3119480;28;20293;-90
2021/09/30 12:58:42;;;;;;;9.80;2.45;;;21.80;54.30;;;;;;3121990;28;20487;-91
2021/09/30 13:00:15;;;;;;;10.02;2.35;;;21.80;54.40;;;;;;3122580;28;20080;-89
2021/09/30 13:01:50;;;;;;;8.73;2.20;;;21.70;54.30;;;;;;3122632;28;20502;-91
2021/09/30 13:03:22;;;;;;;9.30;1.85;;;21.80;54.20;;;;;;3123168;28;20103;-89
2021/09/30 13:04:57;;;;;;;8.10;2.30;;;21.70;54.00;;;;;;3122831;28;20149;-89
2021/09/30 13:06:29;;;;;;;10.30;2.20;;;21.70;54.00;;;;;;3123085;28;20311;-89
2021/09/30 13:08:01;;;;;;;7.55;1.90;;;21.80;53.70;;;;;;3122684;28;20474;-89
2021/09/30 13:09:33;;;;;;;8.65;2.20;;;21.80;53.40;;;;;;3121579;28;20052;-90
2021/09/30 13:11:31;;;;;;;10.63;2.22;;;21.90;53.10;;;;;;3122890;28;20525;-90
2021/09/30 13:13:04;;;;;;;5.97;1.92;;;21.90;53.00;;;;;;3119455;28;20148;-89
2021/09/30 13:14:36;;;;;;;8.73;2.15;;;21.80;52.90;;;;;;3122265;28;20510;-90
2021/09/30 13:16:14;;;;;;;8.10;1.80;;;21.80;52.70;;;;;;3122281;28;20564;-90
2021/09/30 13:17:46;;;;;;;4.75;1.70;;;21.90;52.40;;;;;;3122690;28;20560;-90
2021/09/30 13:19:18;;;;;;;6.03;1.63;;;21.90;52.30;;;;;;3121925;28;20454;-92
2021/09/30 13:21:04;;;;;;;12.70;2.20;;;21.80;52.30;;;;;;3123277;28;20533;-89
2021/09/30 13:22:39;;;;;;;5.55;1.83;;;21.80;52.20;;;;;;3123537;28;20057;-89
2021/09/30 13:24:11;;;;;;;7.43;1.85;;;21.90;52.20;;;;;;3121660;28;20494;-90
2021/09/30 13:25:43;;;;;;;6.90;1.97;;;21.90;52.10;;;;;;3122833;28;20564;-89
2021/09/30 13:27:19;;;;;;;6.32;1.83;;;21.90;52.00;;;;;;3123119;28;20349;-89
2021/09/30 13:28:51;;;;;;;8.18;2.15;;;22.00;51.70;;;;;;3122319;28;20045;-90
2021/09/30 13:30:23;;;;;;;7.45;1.88;;;21.90;51.80;;;;;;3122092;28;20053;-92
2021/09/30 13:31:55;;;;;;;6.13;1.73;;;21.90;51.80;;;;;;3122667;28;20053;-89
2021/09/30 13:33:27;;;;;;;6.33;2.33;;;22.00;51.60;;;;;;3122585;28;20053;-90
2021/09/30 13:34:59;;;;;;;7.17;2.00;;;22.00;51.50;;;;;;3121457;28;20292;-90
2021/09/30 13:36:32;;;;;;;5.68;2.00;;;21.90;51.50;;;;;;3122724;28;20111;-91
2021/09/30 13:38:04;;;;;;;6.60;2.00;;;21.90;51.50;;;;;;3122776;28;20046;-89
2021/09/30 13:39:39;;;;;;;6.43;2.17;;;21.90;51.40;;;;;;3121657;28;20466;-88
2021/09/30 13:41:11;;;;;;;6.03;1.85;;;22.00;51.50;;;;;;3122662;28;20132;-90